AU-0029 weather

Stirling Range Retreat
Western Australia, Australia

Public forecast

Using degrees Celsius for public forecast. Weather courtesy of forecast.io.

METAR (pilot weather report)

Closest report is Albany Airport, 42.2 nm (78.2 km) SSW. Retrieved 2019/03/22 14:00 UTC (15 minutes ago):

YABA 221400Z AUTO 20005KT 9999 // SCT028 SCT044 13/11 Q1020

TAF (pilot weather forecast)

Forecast is more than 12 hours old.

Closest forecast is Perth Jandakot Airport, 176.3 nm (326.5 km) NW. Retrieved 2019/03/21 00:00 UTC (2 days ago):

TAF YPJT 212217Z 2200/2306 16010KT 9999 SCT020 FM220200 16010KT 9999 BKN045 FM220500 20017KT CAVOK FM221200 14012KT CAVOK